sensor_id;sensor_type;location;lat;lon;timestamp;pressure;altitude;pressure_sealevel;temperature;humidity
7584;BME280;3833;41.764;26.204;2022-09-16T00:01:10;100035.72;;;22.40;100.00
7584;BME280;3833;41.764;26.204;2022-09-16T00:03:39;100087.25;;;22.29;100.00
7584;BME280;3833;41.764;26.204;2022-09-16T00:06:12;100090.78;;;22.30;100.00
7584;BME280;3833;41.764;26.204;2022-09-16T00:08:41;100064.31;;;21.72;100.00
7584;BME280;3833;41.764;26.204;2022-09-16T00:11:10;100069.91;;;21.59;100.00
7584;BME280;3833;41.764;26.204;2022-09-16T00:13:36;100064.31;;;21.62;100.00
7584;BME280;3833;41.764;26.204;2022-09-16T00:16:06;100072.00;;;21.65;100.00
7584;BME280;3833;41.764;26.204;2022-09-16T00:18:33;100073.00;;;21.93;100.00
7584;BME280;3833;41.764;26.204;2022-09-16T00:21:06;100059.53;;;22.13;100.00
7584;BME280;3833;41.764;26.204;2022-09-16T00:23:34;100081.31;;;22.73;100.00
7584;BME280;3833;41.764;26.204;2022-09-16T00:26:04;100076.88;;;22.55;100.00
7584;BME280;3833;41.764;26.204;2022-09-16T00:28:31;100074.66;;;22.41;100.00
7584;BME280;3833;41.764;26.204;2022-09-16T00:30:58;99973.72;;;22.20;100.00
7584;BME280;3833;41.764;26.204;2022-09-16T00:33:25;100091.59;;;23.41;100.00
7584;BME280;3833;41.764;26.204;2022-09-16T00:35:52;100079.72;;;23.26;100.00
7584;BME280;3833;41.764;26.204;2022-09-16T00:38:31;100057.69;;;23.51;100.00
7584;BME280;3833;41.764;26.204;2022-09-16T00:40:57;100064.75;;;23.87;100.00
7584;BME280;3833;41.764;26.204;2022-09-16T00:43:27;100068.88;;;23.54;100.00
7584;BME280;3833;41.764;26.204;2022-09-16T00:45:56;100075.00;;;23.64;100.00
7584;BME280;3833;41.764;26.204;2022-09-16T00:48:26;100077.78;;;23.72;99.98
7584;BME280;3833;41.764;26.204;2022-09-16T00:50:57;99982.13;;;22.98;100.00
7584;BME280;3833;41.764;26.204;2022-09-16T00:53:27;99971.81;;;22.86;100.00
7584;BME280;3833;41.764;26.204;2022-09-16T00:55:58;100080.94;;;23.58;100.00
7584;BME280;3833;41.764;26.204;2022-09-16T00:58:32;100071.13;;;23.59;100.00
7584;BME280;3833;41.764;26.204;2022-09-16T01:01:03;100075.00;;;23.64;100.00
7584;BME280;3833;41.764;26.204;2022-09-16T01:03:32;100074.91;;;23.56;100.00
7584;BME280;3833;41.764;26.204;2022-09-16T01:06:01;100058.84;;;23.21;100.00
7584;BME280;3833;41.764;26.204;2022-09-16T01:08:28;100108.38;;;23.14;100.00
7584;BME280;3833;41.764;26.204;2022-09-16T01:10:57;100112.78;;;22.51;100.00
7584;BME280;3833;41.764;26.204;2022-09-16T01:13:24;100112.44;;;22.63;100.00
7584;BME280;3833;41.764;26.204;2022-09-16T01:16:03;99994.75;;;21.86;100.00
7584;BME280;3833;41.764;26.204;2022-09-16T01:18:38;100074.13;;;22.28;100.00
7584;BME280;3833;41.764;26.204;2022-09-16T01:21:19;100022.28;;;21.56;100.00
7584;BME280;3833;41.764;26.204;2022-09-16T01:24:16;100111.06;;;21.84;100.00
7584;BME280;3833;41.764;26.204;2022-09-16T01:30:35;100106.44;;;21.76;100.00
7584;BME280;3833;41.764;26.204;2022-09-16T01:33:04;100109.69;;;21.89;100.00
7584;BME280;3833;41.764;26.204;2022-09-16T01:35:44;100121.84;;;22.01;100.00
7584;BME280;3833;41.764;26.204;2022-09-16T01:38:27;100118.06;;;21.85;100.00
7584;BME280;3833;41.764;26.204;2022-09-16T01:41:06;99996.22;;;21.12;100.00
7584;BME280;3833;41.764;26.204;2022-09-16T01:43:43;100098.47;;;21.95;100.00
7584;BME280;3833;41.764;26.204;2022-09-16T01:46:20;100058.44;;;22.25;100.00
7584;BME280;3833;41.764;26.204;2022-09-16T01:48:55;100102.69;;;21.79;100.00
7584;BME280;3833;41.764;26.204;2022-09-16T01:51:28;100086.44;;;22.10;100.00
7584;BME280;3833;41.764;26.204;2022-09-16T01:54:02;100077.47;;;22.49;100.00
7584;BME280;3833;41.764;26.204;2022-09-16T01:56:38;100086.69;;;22.64;100.00
7584;BME280;3833;41.764;26.204;2022-09-16T01:59:09;100108.75;;;22.93;100.00
7584;BME280;3833;41.764;26.204;2022-09-16T02:01:41;100106.72;;;23.13;100.00
7584;BME280;3833;41.764;26.204;2022-09-16T02:04:15;100002.97;;;22.39;100.00
7584;BME280;3833;41.764;26.204;2022-09-16T02:06:48;100113.13;;;23.20;100.00
7584;BME280;3833;41.764;26.204;2022-09-16T02:09:19;100119.66;;;22.99;100.00
7584;BME280;3833;41.764;26.204;2022-09-16T02:11:49;100113.72;;;23.14;100.00
7584;BME280;3833;41.764;26.204;2022-09-16T02:14:20;100104.16;;;23.21;100.00
7584;BME280;3833;41.764;26.204;2022-09-16T02:16:54;100077.09;;;22.80;100.00
7584;BME280;3833;41.764;26.204;2022-09-16T02:19:24;100024.28;;;22.11;100.00
7584;BME280;3833;41.764;26.204;2022-09-16T02:21:53;100127.88;;;22.22;100.00
7584;BME280;3833;41.764;26.204;2022-09-16T02:24:23;100067.13;;;21.89;100.00
7584;BME280;3833;41.764;26.204;2022-09-16T02:26:55;100126.50;;;22.37;100.00
7584;BME280;3833;41.764;26.204;2022-09-16T02:29:27;100123.44;;;22.51;100.00
7584;BME280;3833;41.764;26.204;2022-09-16T02:32:00;100086.69;;;22.64;100.00
7584;BME280;3833;41.764;26.204;2022-09-16T02:34:33;99951.53;;;21.74;100.00
7584;BME280;3833;41.764;26.204;2022-09-16T02:37:07;100111.91;;;22.60;100.00
7584;BME280;3833;41.764;26.204;2022-09-16T02:39:37;100112.50;;;22.35;100.00
7584;BME280;3833;41.764;26.204;2022-09-16T02:42:06;100124.25;;;22.23;100.00
7584;BME280;3833;41.764;26.204;2022-09-16T02:44:33;100131.69;;;22.19;100.00
7584;BME280;3833;41.764;26.204;2022-09-16T02:47:08;100133.47;;;22.00;100.00
7584;BME280;3833;41.764;26.204;2022-09-16T02:49:39;100126.22;;;22.49;100.00
7584;BME280;3833;41.764;26.204;2022-09-16T02:52:13;100132.91;;;22.72;100.00
7584;BME280;3833;41.764;26.204;2022-09-16T02:54:48;100128.72;;;22.70;100.00
7584;BME280;3833;41.764;26.204;2022-09-16T02:57:19;100132.31;;;22.88;100.00
7584;BME280;3833;41.764;26.204;2022-09-16T02:59:46;100140.59;;;22.75;100.00
7584;BME280;3833;41.764;26.204;2022-09-16T03:02:15;100127.91;;;22.41;100.00
7584;BME280;3833;41.764;26.204;2022-09-16T03:04:42;100135.72;;;22.14;100.00
7584;BME280;3833;41.764;26.204;2022-09-16T03:07:10;100050.09;;;21.43;100.00
7584;BME280;3833;41.764;26.204;2022-09-16T03:09:41;100142.16;;;22.02;100.00
7584;BME280;3833;41.764;26.204;2022-09-16T03:12:18;100152.25;;;22.27;100.00
7584;BME280;3833;41.764;26.204;2022-09-16T03:15:08;100157.78;;;21.67;100.00
7584;BME280;3833;41.764;26.204;2022-09-16T03:17:53;100133.53;;;19.99;100.00
7584;BME280;3833;41.764;26.204;2022-09-16T03:20:30;100123.63;;;20.32;100.00
7584;BME280;3833;41.764;26.204;2022-09-16T03:23:12;99987.22;;;19.94;100.00
7584;BME280;3833;41.764;26.204;2022-09-16T03:25:50;100148.47;;;20.52;100.00
7584;BME280;3833;41.764;26.204;2022-09-16T03:28:22;100066.31;;;20.41;100.00
7584;BME280;3833;41.764;26.204;2022-09-16T03:30:57;100152.78;;;21.83;100.00
7584;BME280;3833;41.764;26.204;2022-09-16T03:33:32;100155.63;;;22.10;100.00
7584;BME280;3833;41.764;26.204;2022-09-16T03:36:03;100154.69;;;21.62;100.00
7584;BME280;3833;41.764;26.204;2022-09-16T03:38:31;100147.91;;;21.49;100.00
7584;BME280;3833;41.764;26.204;2022-09-16T03:41:02;100133.44;;;21.72;100.00
7584;BME280;3833;41.764;26.204;2022-09-16T03:43:29;100144.63;;;21.75;100.00
7584;BME280;3833;41.764;26.204;2022-09-16T03:45:56;100148.16;;;20.66;100.00
7584;BME280;3833;41.764;26.204;2022-09-16T03:48:23;100145.25;;;20.28;100.00
7584;BME280;3833;41.764;26.204;2022-09-16T03:50:51;100141.72;;;21.09;100.00
7584;BME280;3833;41.764;26.204;2022-09-16T03:53:18;100132.06;;;20.37;100.00
7584;BME280;3833;41.764;26.204;2022-09-16T03:55:47;100135.09;;;20.94;100.00
7584;BME280;3833;41.764;26.204;2022-09-16T03:58:14;100147.31;;;21.36;100.00
7584;BME280;3833;41.764;26.204;2022-09-16T04:00:41;100139.25;;;21.17;100.00
7584;BME280;3833;41.764;26.204;2022-09-16T04:03:08;100133.00;;;20.57;100.00
7584;BME280;3833;41.764;26.204;2022-09-16T04:05:35;100133.34;;;20.84;100.00
7584;BME280;3833;41.764;26.204;2022-09-16T04:08:03;100137.56;;;21.55;100.00
7584;BME280;3833;41.764;26.204;2022-09-16T04:10:30;100138.53;;;22.03;100.00
7584;BME280;3833;41.764;26.204;2022-09-16T04:12:59;100133.91;;;21.47;100.00
7584;BME280;3833;41.764;26.204;2022-09-16T04:15:26;100146.53;;;20.95;100.00
7584;BME280;3833;41.764;26.204;2022-09-16T04:17:52;100145.31;;;19.53;100.00
7584;BME280;3833;41.764;26.204;2022-09-16T04:20:20;100145.72;;;20.53;100.00
7584;BME280;3833;41.764;26.204;2022-09-16T04:22:48;100053.22;;;20.08;100.00
7584;BME280;3833;41.764;26.204;2022-09-16T04:25:16;100169.00;;;21.11;100.00
7584;BME280;3833;41.764;26.204;2022-09-16T04:27:45;100172.78;;;21.48;100.00
7584;BME280;3833;41.764;26.204;2022-09-16T04:30:12;100164.22;;;21.74;100.00
7584;BME280;3833;41.764;26.204;2022-09-16T04:32:39;100175.75;;;22.03;100.00
7584;BME280;3833;41.764;26.204;2022-09-16T04:35:07;100082.59;;;20.57;100.00
7584;BME280;3833;41.764;26.204;2022-09-16T04:37:34;100164.41;;;19.67;100.00
7584;BME280;3833;41.764;26.204;2022-09-16T04:40:01;100118.69;;;18.78;100.00
7584;BME280;3833;41.764;26.204;2022-09-16T04:42:31;100162.56;;;19.25;100.00
7584;BME280;3833;41.764;26.204;2022-09-16T04:44:58;100142.78;;;19.29;100.00
7584;BME280;3833;41.764;26.204;2022-09-16T04:47:25;100161.53;;;18.93;100.00
7584;BME280;3833;41.764;26.204;2022-09-16T04:49:52;100152.50;;;18.74;100.00
7584;BME280;3833;41.764;26.204;2022-09-16T04:52:18;100168.69;;;19.26;100.00
7584;BME280;3833;41.764;26.204;2022-09-16T04:54:45;100146.63;;;19.03;100.00
7584;BME280;3833;41.764;26.204;2022-09-16T04:57:12;100057.00;;;18.66;100.00
7584;BME280;3833;41.764;26.204;2022-09-16T04:59:40;100131.34;;;19.07;100.00
7584;BME280;3833;41.764;26.204;2022-09-16T05:02:07;100160.69;;;19.59;100.00
7584;BME280;3833;41.764;26.204;2022-09-16T05:04:34;100153.19;;;20.28;100.00
7584;BME280;3833;41.764;26.204;2022-09-16T05:07:01;100152.75;;;20.64;100.00
7584;BME280;3833;41.764;26.204;2022-09-16T05:09:31;100152.75;;;20.64;100.00
7584;BME280;3833;41.764;26.204;2022-09-16T05:11:58;100163.56;;;20.72;100.00
7584;BME280;3833;41.764;26.204;2022-09-16T05:14:24;100156.28;;;20.85;100.00
7584;BME280;3833;41.764;26.204;2022-09-16T05:16:53;100054.72;;;20.72;100.00
7584;BME280;3833;41.764;26.204;2022-09-16T05:19:20;100159.91;;;21.43;100.00
7584;BME280;3833;41.764;26.204;2022-09-16T05:21:47;100067.25;;;21.20;100.00
7584;BME280;3833;41.764;26.204;2022-09-16T05:24:14;100154.19;;;21.87;100.00
7584;BME280;3833;41.764;26.204;2022-09-16T05:26:41;100149.94;;;21.66;100.00
7584;BME280;3833;41.764;26.204;2022-09-16T05:29:10;100157.38;;;20.82;100.00
7584;BME280;3833;41.764;26.204;2022-09-16T05:31:39;100158.03;;;20.95;100.00
7584;BME280;3833;41.764;26.204;2022-09-16T05:34:12;100144.16;;;21.21;100.00
7584;BME280;3833;41.764;26.204;2022-09-16T05:36:39;100162.88;;;21.50;100.00
7584;BME280;3833;41.764;26.204;2022-09-16T05:39:08;100163.13;;;21.77;100.00
7584;BME280;3833;41.764;26.204;2022-09-16T05:41:37;100164.25;;;21.93;100.00
7584;BME280;3833;41.764;26.204;2022-09-16T05:44:04;100164.13;;;21.95;100.00
7584;BME280;3833;41.764;26.204;2022-09-16T05:46:32;100169.31;;;22.15;100.00
7584;BME280;3833;41.764;26.204;2022-09-16T05:48:59;100159.25;;;22.28;100.00
7584;BME280;3833;41.764;26.204;2022-09-16T05:51:28;100157.31;;;22.11;100.00
7584;BME280;3833;41.764;26.204;2022-09-16T05:53:55;100155.81;;;21.60;100.00
7584;BME280;3833;41.764;26.204;2022-09-16T05:56:24;100127.59;;;21.87;100.00
7584;BME280;3833;41.764;26.204;2022-09-16T05:58:53;100088.53;;;21.88;100.00
7584;BME280;3833;41.764;26.204;2022-09-16T06:01:21;100126.47;;;22.08;100.00
7584;BME280;3833;41.764;26.204;2022-09-16T06:03:49;100158.16;;;22.59;100.00
7584;BME280;3833;41.764;26.204;2022-09-16T06:06:20;100128.19;;;22.38;100.00
7584;BME280;3833;41.764;26.204;2022-09-16T06:08:50;100150.84;;;22.61;100.00
7584;BME280;3833;41.764;26.204;2022-09-16T06:11:18;100113.59;;;22.61;100.00
7584;BME280;3833;41.764;26.204;2022-09-16T06:13:45;100040.78;;;22.24;100.00
7584;BME280;3833;41.764;26.204;2022-09-16T06:16:12;100137.94;;;22.75;100.00
7584;BME280;3833;41.764;26.204;2022-09-16T06:18:40;100138.00;;;22.47;100.00
7584;BME280;3833;41.764;26.204;2022-09-16T06:21:08;100136.75;;;22.97;100.00
7584;BME280;3833;41.764;26.204;2022-09-16T06:23:37;100113.06;;;22.94;100.00
7584;BME280;3833;41.764;26.204;2022-09-16T06:26:07;100124.38;;;23.14;100.00
7584;BME280;3833;41.764;26.204;2022-09-16T06:28:35;100135.91;;;23.06;100.00
7584;BME280;3833;41.764;26.204;2022-09-16T06:31:04;100111.78;;;22.98;100.00
7584;BME280;3833;41.764;26.204;2022-09-16T06:33:32;100142.94;;;23.43;100.00
7584;BME280;3833;41.764;26.204;2022-09-16T06:36:02;100145.63;;;23.60;100.00
7584;BME280;3833;41.764;26.204;2022-09-16T06:38:29;100141.22;;;23.69;100.00
7584;BME280;3833;41.764;26.204;2022-09-16T06:40:58;100137.81;;;23.76;100.00
7584;BME280;3833;41.764;26.204;2022-09-16T06:43:26;100129.34;;;23.90;100.00
7584;BME280;3833;41.764;26.204;2022-09-16T06:45:58;100128.59;;;24.15;100.00
7584;BME280;3833;41.764;26.204;2022-09-16T06:48:25;100111.78;;;24.40;100.00
7584;BME280;3833;41.764;26.204;2022-09-16T06:50:58;100074.13;;;24.25;100.00
7584;BME280;3833;41.764;26.204;2022-09-16T06:53:26;100121.69;;;24.65;100.00
7584;BME280;3833;41.764;26.204;2022-09-16T06:55:53;100111.84;;;24.91;98.33
7584;BME280;3833;41.764;26.204;2022-09-16T06:58:20;100105.09;;;25.12;96.51
7584;BME280;3833;41.764;26.204;2022-09-16T07:00:48;100105.84;;;25.63;91.99
7584;BME280;3833;41.764;26.204;2022-09-16T07:03:16;100107.84;;;25.53;89.76
7584;BME280;3833;41.764;26.204;2022-09-16T07:05:43;100114.31;;;26.00;88.87
7584;BME280;3833;41.764;26.204;2022-09-16T07:08:20;100118.06;;;26.79;85.75
7584;BME280;3833;41.764;26.204;2022-09-16T07:10:55;100106.97;;;26.98;82.91
7584;BME280;3833;41.764;26.204;2022-09-16T07:13:21;100129.91;;;27.54;78.57
7584;BME280;3833;41.764;26.204;2022-09-16T07:15:50;100135.72;;;27.28;78.11
7584;BME280;3833;41.764;26.204;2022-09-16T07:18:17;100136.59;;;26.96;79.60
7584;BME280;3833;41.764;26.204;2022-09-16T07:20:43;100127.00;;;27.26;78.03
7584;BME280;3833;41.764;26.204;2022-09-16T07:23:11;100127.09;;;27.86;74.67
7584;BME280;3833;41.764;26.204;2022-09-16T07:25:37;100122.78;;;27.77;75.38
7584;BME280;3833;41.764;26.204;2022-09-16T07:28:05;100119.31;;;27.61;74.10
7584;BME280;3833;41.764;26.204;2022-09-16T07:30:32;100117.97;;;28.26;73.22
7584;BME280;3833;41.764;26.204;2022-09-16T07:33:00;100083.59;;;27.91;71.24
7584;BME280;3833;41.764;26.204;2022-09-16T07:35:27;100115.78;;;28.21;72.16
7584;BME280;3833;41.764;26.204;2022-09-16T07:37:54;100107.19;;;28.48;71.69
7584;BME280;3833;41.764;26.204;2022-09-16T07:40:21;100013.19;;;28.26;70.93
7584;BME280;3833;41.764;26.204;2022-09-16T07:42:48;100110.63;;;29.08;68.98
7584;BME280;3833;41.764;26.204;2022-09-16T07:45:15;100104.34;;;29.30;67.06
7584;BME280;3833;41.764;26.204;2022-09-16T07:47:41;100101.09;;;29.49;66.56
7584;BME280;3833;41.764;26.204;2022-09-16T07:50:10;100031.41;;;29.25;65.19
7584;BME280;3833;41.764;26.204;2022-09-16T07:52:37;100108.88;;;29.93;64.33
7584;BME280;3833;41.764;26.204;2022-09-16T07:55:04;100115.75;;;29.75;63.71
7584;BME280;3833;41.764;26.204;2022-09-16T07:57:32;100117.53;;;29.54;64.76
7584;BME280;3833;41.764;26.204;2022-09-16T07:59:58;100114.66;;;29.55;64.65
7584;BME280;3833;41.764;26.204;2022-09-16T08:02:25;100109.72;;;29.59;63.92
7584;BME280;3833;41.764;26.204;2022-09-16T08:04:52;100111.94;;;30.26;62.59
7584;BME280;3833;41.764;26.204;2022-09-16T08:07:21;100089.06;;;30.91;59.72
7584;BME280;3833;41.764;26.204;2022-09-16T08:09:47;100106.28;;;29.36;62.44
7584;BME280;3833;41.764;26.204;2022-09-16T08:12:14;100108.38;;;29.83;61.91
7584;BME280;3833;41.764;26.204;2022-09-16T08:14:41;99877.31;;;28.66;62.61
7584;BME280;3833;41.764;26.204;2022-09-16T08:17:08;100079.97;;;30.65;60.43
7584;BME280;3833;41.764;26.204;2022-09-16T08:19:35;100101.31;;;31.14;58.98
7584;BME280;3833;41.764;26.204;2022-09-16T08:22:03;100106.53;;;30.95;57.97
7584;BME280;3833;41.764;26.204;2022-09-16T08:24:33;100111.69;;;31.58;55.90
7584;BME280;3833;41.764;26.204;2022-09-16T08:27:00;100104.22;;;32.06;52.30
7584;BME280;3833;41.764;26.204;2022-09-16T08:29:27;100097.44;;;31.64;54.48
7584;BME280;3833;41.764;26.204;2022-09-16T08:31:54;100109.06;;;31.71;53.60
7584;BME280;3833;41.764;26.204;2022-09-16T08:34:20;100101.22;;;31.35;54.33
7584;BME280;3833;41.764;26.204;2022-09-16T08:36:48;100082.19;;;31.16;53.62
7584;BME280;3833;41.764;26.204;2022-09-16T08:39:15;100081.56;;;31.14;53.66
7584;BME280;3833;41.764;26.204;2022-09-16T08:41:57;100082.34;;;31.42;54.04
7584;BME280;3833;41.764;26.204;2022-09-16T08:44:33;100081.84;;;31.32;54.01
7584;BME280;3833;41.764;26.204;2022-09-16T08:49:49;99998.09;;;31.12;52.72
7584;BME280;3833;41.764;26.204;2022-09-16T08:52:26;99977.66;;;31.44;53.30
7584;BME280;3833;41.764;26.204;2022-09-16T08:54:56;99971.41;;;31.50;53.07
7584;BME280;3833;41.764;26.204;2022-09-16T08:57:27;100049.84;;;31.76;53.67
7584;BME280;3833;41.764;26.204;2022-09-16T08:59:58;99997.63;;;31.56;52.40
7584;BME280;3833;41.764;26.204;2022-09-16T09:02:39;100057.16;;;31.82;52.30
7584;BME280;3833;41.764;26.204;2022-09-16T09:05:14;100038.66;;;31.91;51.43
7584;BME280;3833;41.764;26.204;2022-09-16T09:07:52;100047.28;;;32.27;50.23
7584;BME280;3833;41.764;26.204;2022-09-16T09:10:24;99976.50;;;31.72;50.72
7584;BME280;3833;41.764;26.204;2022-09-16T09:12:58;100026.41;;;31.83;51.44
7584;BME280;3833;41.764;26.204;2022-09-16T09:15:36;100025.38;;;31.96;50.86
7584;BME280;3833;41.764;26.204;2022-09-16T09:18:16;100063.91;;;32.89;50.88
7584;BME280;3833;41.764;26.204;2022-09-16T09:20:50;100027.50;;;32.46;49.84
7584;BME280;3833;41.764;26.204;2022-09-16T09:23:35;100047.88;;;32.81;50.00
7584;BME280;3833;41.764;26.204;2022-09-16T09:26:10;100062.28;;;32.62;50.61
7584;BME280;3833;41.764;26.204;2022-09-16T09:31:41;99967.78;;;31.90;51.64
7584;BME280;3833;41.764;26.204;2022-09-16T09:34:21;100033.75;;;32.66;50.87
7584;BME280;3833;41.764;26.204;2022-09-16T09:37:03;100029.38;;;32.65;50.03
7584;BME280;3833;41.764;26.204;2022-09-16T09:39:43;100023.94;;;32.78;50.75
7584;BME280;3833;41.764;26.204;2022-09-16T09:42:19;100019.78;;;32.82;50.16
7584;BME280;3833;41.764;26.204;2022-09-16T09:44:52;100007.50;;;32.73;49.13
7584;BME280;3833;41.764;26.204;2022-09-16T09:47:25;100004.28;;;33.15;49.30
7584;BME280;3833;41.764;26.204;2022-09-16T09:49:55;99999.72;;;33.09;50.40
7584;BME280;3833;41.764;26.204;2022-09-16T09:52:29;100006.91;;;32.71;51.25
7584;BME280;3833;41.764;26.204;2022-09-16T09:55:05;99970.50;;;32.67;51.14
7584;BME280;3833;41.764;26.204;2022-09-16T09:57:39;99998.41;;;33.24;50.77
7584;BME280;3833;41.764;26.204;2022-09-16T10:00:15;99932.72;;;32.92;49.23
7584;BME280;3833;41.764;26.204;2022-09-16T10:02:44;99994.75;;;33.00;50.18
7584;BME280;3833;41.764;26.204;2022-09-16T10:05:20;99922.94;;;33.34;49.53
7584;BME280;3833;41.764;26.204;2022-09-16T10:07:50;99967.91;;;34.04;47.91
7584;BME280;3833;41.764;26.204;2022-09-16T10:10:20;99999.84;;;34.32;47.76
7584;BME280;3833;41.764;26.204;2022-09-16T10:12:48;99997.59;;;34.47;46.66
7584;BME280;3833;41.764;26.204;2022-09-16T10:15:22;99995.06;;;34.52;46.33
7584;BME280;3833;41.764;26.204;2022-09-16T10:17:50;99984.25;;;34.88;46.06
7584;BME280;3833;41.764;26.204;2022-09-16T10:20:25;99979.88;;;35.05;45.04
7584;BME280;3833;41.764;26.204;2022-09-16T10:22:59;99897.94;;;34.36;44.36
7584;BME280;3833;41.764;26.204;2022-09-16T10:25:29;99901.50;;;34.91;41.90
7584;BME280;3833;41.764;26.204;2022-09-16T10:27:58;99958.56;;;35.38;42.34
7584;BME280;3833;41.764;26.204;2022-09-16T10:30:28;99966.03;;;35.13;42.53
7584;BME280;3833;41.764;26.204;2022-09-16T10:32:59;99967.50;;;35.27;42.26
7584;BME280;3833;41.764;26.204;2022-09-16T10:35:31;99961.28;;;35.38;42.50
7584;BME280;3833;41.764;26.204;2022-09-16T10:38:02;99950.31;;;35.62;40.46
7584;BME280;3833;41.764;26.204;2022-09-16T10:40:30;99958.22;;;35.64;40.00
7584;BME280;3833;41.764;26.204;2022-09-16T10:43:01;99872.50;;;35.21;40.05
7584;BME280;3833;41.764;26.204;2022-09-16T10:45:33;99938.91;;;35.95;40.25
7584;BME280;3833;41.764;26.204;2022-09-16T10:48:05;99931.50;;;36.25;38.93
7584;BME280;3833;41.764;26.204;2022-09-16T10:50:32;99913.38;;;36.19;39.51
7584;BME280;3833;41.764;26.204;2022-09-16T10:52:59;99925.91;;;36.20;36.77
7584;BME280;3833;41.764;26.204;2022-09-16T10:55:27;99922.38;;;36.08;37.57
7584;BME280;3833;41.764;26.204;2022-09-16T10:58:08;99882.38;;;35.97;35.87
7584;BME280;3833;41.764;26.204;2022-09-16T11:00:43;99907.09;;;35.95;37.78
7584;BME280;3833;41.764;26.204;2022-09-16T11:03:29;99899.31;;;35.58;37.81
7584;BME280;3833;41.764;26.204;2022-09-16T11:06:10;99902.31;;;35.68;37.83
7584;BME280;3833;41.764;26.204;2022-09-16T11:08:54;99887.25;;;35.54;39.25
7584;BME280;3833;41.764;26.204;2022-09-16T11:11:38;99903.84;;;35.64;39.48
7584;BME280;3833;41.764;26.204;2022-09-16T11:14:15;99887.13;;;36.13;40.08
7584;BME280;3833;41.764;26.204;2022-09-16T11:19:47;99886.91;;;36.48;38.49
7584;BME280;3833;41.764;26.204;2022-09-16T11:22:25;99857.16;;;35.67;39.21
7584;BME280;3833;41.764;26.204;2022-09-16T11:25:21;99872.22;;;36.04;39.45
7584;BME280;3833;41.764;26.204;2022-09-16T11:27:55;99821.44;;;35.52;40.21
7584;BME280;3833;41.764;26.204;2022-09-16T11:30:27;99858.56;;;36.72;39.79
7584;BME280;3833;41.764;26.204;2022-09-16T11:33:12;99859.41;;;36.61;38.67
7584;BME280;3833;41.764;26.204;2022-09-16T11:36:03;99857.28;;;36.40;38.16
7584;BME280;3833;41.764;26.204;2022-09-16T11:38:38;99849.50;;;36.55;38.45
7584;BME280;3833;41.764;26.204;2022-09-16T11:41:12;99834.00;;;35.99;38.39
7584;BME280;3833;41.764;26.204;2022-09-16T11:43:54;99849.03;;;36.36;39.08
7584;BME280;3833;41.764;26.204;2022-09-16T11:46:32;99833.09;;;36.78;37.90
7584;BME280;3833;41.764;26.204;2022-09-16T11:49:16;99819.28;;;36.57;37.92
7584;BME280;3833;41.764;26.204;2022-09-16T11:51:56;99813.97;;;37.34;37.24
7584;BME280;3833;41.764;26.204;2022-09-16T11:54:56;99810.06;;;36.97;36.74
7584;BME280;3833;41.764;26.204;2022-09-16T11:57:34;99799.19;;;36.86;36.75
7584;BME280;3833;41.764;26.204;2022-09-16T12:00:04;99797.50;;;37.13;37.07
7584;BME280;3833;41.764;26.204;2022-09-16T12:02:38;99745.66;;;37.24;36.64
7584;BME280;3833;41.764;26.204;2022-09-16T12:05:15;99771.50;;;37.05;36.85
7584;BME280;3833;41.764;26.204;2022-09-16T12:07:49;99774.56;;;37.25;37.51
7584;BME280;3833;41.764;26.204;2022-09-16T12:10:21;99716.63;;;36.69;37.30
7584;BME280;3833;41.764;26.204;2022-09-16T12:12:51;99759.63;;;36.83;37.52
7584;BME280;3833;41.764;26.204;2022-09-16T12:15:23;99752.41;;;36.61;38.08
7584;BME280;3833;41.764;26.204;2022-09-16T12:17:54;99742.88;;;36.47;38.25
7584;BME280;3833;41.764;26.204;2022-09-16T12:20:28;99750.59;;;36.94;37.91
7584;BME280;3833;41.764;26.204;2022-09-16T12:23:01;99740.63;;;37.00;38.06
7584;BME280;3833;41.764;26.204;2022-09-16T12:25:34;99724.53;;;37.31;37.28
7584;BME280;3833;41.764;26.204;2022-09-16T12:28:09;99728.59;;;37.29;37.80
7584;BME280;3833;41.764;26.204;2022-09-16T12:30:41;99720.78;;;36.88;38.44
7584;BME280;3833;41.764;26.204;2022-09-16T12:33:13;99728.44;;;36.91;39.33
7584;BME280;3833;41.764;26.204;2022-09-16T12:35:46;99713.06;;;36.68;39.77
7584;BME280;3833;41.764;26.204;2022-09-16T12:38:17;99697.28;;;36.98;39.56
7584;BME280;3833;41.764;26.204;2022-09-16T12:40:55;99711.97;;;36.41;40.34
7584;BME280;3833;41.764;26.204;2022-09-16T12:44:02;99687.16;;;36.82;40.46
7584;BME280;3833;41.764;26.204;2022-09-16T12:47:09;99693.66;;;37.26;40.21
7584;BME280;3833;41.764;26.204;2022-09-16T12:49:54;99689.19;;;37.03;40.86
7584;BME280;3833;41.764;26.204;2022-09-16T12:52:39;99690.44;;;37.29;40.66
7584;BME280;3833;41.764;26.204;2022-09-16T12:55:41;99693.28;;;37.22;41.71
7584;BME280;3833;41.764;26.204;2022-09-16T12:58:27;99677.97;;;37.00;42.52
7584;BME280;3833;41.764;26.204;2022-09-16T13:01:10;99660.63;;;37.06;42.30
7584;BME280;3833;41.764;26.204;2022-09-16T13:03:46;99685.94;;;37.93;40.90
7584;BME280;3833;41.764;26.204;2022-09-16T13:06:20;99676.44;;;38.44;40.70
7584;BME280;3833;41.764;26.204;2022-09-16T13:08:50;99681.75;;;38.76;40.44
7584;BME280;3833;41.764;26.204;2022-09-16T13:11:20;99647.41;;;38.33;40.25
7584;BME280;3833;41.764;26.204;2022-09-16T13:13:48;99668.97;;;37.70;39.32
7584;BME280;3833;41.764;26.204;2022-09-16T13:16:27;99662.78;;;37.96;35.84
7584;BME280;3833;41.764;26.204;2022-09-16T13:21:49;99670.38;;;38.63;33.04
7584;BME280;3833;41.764;26.204;2022-09-16T13:24:29;99660.09;;;39.01;32.85
7584;BME280;3833;41.764;26.204;2022-09-16T13:26:57;99672.31;;;39.25;35.28
7584;BME280;3833;41.764;26.204;2022-09-16T13:29:30;99661.94;;;39.27;37.30
7584;BME280;3833;41.764;26.204;2022-09-16T13:32:04;99661.06;;;38.33;38.04
7584;BME280;3833;41.764;26.204;2022-09-16T13:34:31;99648.09;;;37.80;38.47
7584;BME280;3833;41.764;26.204;2022-09-16T13:36:57;99644.16;;;37.71;38.17